createdAt,value
2023-04-17T00:02:00.551Z,102388.94
2023-04-17T00:04:27.164Z,102402.63
2023-04-17T00:06:53.836Z,102402.63
2023-04-17T00:09:20.527Z,102404.06
2023-04-17T00:11:46.799Z,102395.63
2023-04-17T00:14:13.115Z,102393.59
2023-04-17T00:16:39.490Z,102401.41
2023-04-17T00:19:05.876Z,102401.28
2023-04-17T00:21:32.288Z,102405.03
2023-04-17T00:23:58.612Z,102399.47
2023-04-17T00:26:24.884Z,102398.50
2023-04-17T00:28:51.828Z,102401.00
2023-04-17T00:31:18.206Z,102393.97
2023-04-17T00:33:46.110Z,102389.91
2023-04-17T00:36:13.742Z,102388.44
2023-04-17T00:38:40.383Z,102390.22
2023-04-17T00:41:06.758Z,102393.94
2023-04-17T00:43:33.070Z,102396.28
2023-04-17T00:45:59.496Z,102393.19
2023-04-17T00:48:25.872Z,102394.66
2023-04-17T00:50:52.208Z,102390.84
2023-04-17T00:53:18.499Z,102396.59
2023-04-17T00:55:44.818Z,102394.78
2023-04-17T00:58:11.478Z,102390.38
2023-04-17T01:00:37.863Z,102395.63
2023-04-17T01:03:04.339Z,102395.19
2023-04-17T01:05:30.751Z,102399.19
2023-04-17T01:07:57.233Z,102390.34
2023-04-17T01:10:23.696Z,102390.00
2023-04-17T01:13:01.095Z,102386.97
2023-04-17T01:15:27.369Z,102386.22
2023-04-17T01:17:53.702Z,102392.66
2023-04-17T01:20:20.461Z,102395.13
2023-04-17T01:22:49.078Z,102385.84
2023-04-17T01:25:15.572Z,102386.44
2023-04-17T01:27:41.976Z,102387.91
2023-04-17T01:30:08.590Z,102387.03
2023-04-17T01:32:34.898Z,102385.59
2023-04-17T01:35:01.217Z,102394.66
2023-04-17T01:37:27.760Z,102391.63
2023-04-17T01:39:55.633Z,102383.81
2023-04-17T01:42:22.300Z,102391.41
2023-04-17T01:44:48.634Z,102378.06
2023-04-17T01:47:15.138Z,102386.88
2023-04-17T01:49:41.433Z,102388.22
2023-04-17T01:52:07.746Z,102388.84
2023-04-17T01:54:34.073Z,102398.84
2023-04-17T01:57:01.294Z,102397.06
2023-04-17T01:59:27.602Z,102389.16
2023-04-17T02:01:54.785Z,102385.19
2023-04-17T02:04:21.323Z,102385.44
2023-04-17T02:06:47.686Z,102395.63
2023-04-17T02:09:14.009Z,102399.34
2023-04-17T02:11:40.650Z,102397.72
2023-04-17T02:14:07.011Z,102396.56
2023-04-17T02:16:33.395Z,102395.97
2023-04-17T02:18:59.763Z,102392.69
2023-04-17T02:21:27.337Z,102395.84
2023-04-17T02:23:53.853Z,102385.25
2023-04-17T02:26:20.854Z,102399.91
2023-04-17T02:28:47.237Z,102392.03
2023-04-17T02:31:13.651Z,102390.34
2023-04-17T02:33:40.030Z,102386.84
2023-04-17T02:36:06.828Z,102385.00
2023-04-17T02:38:33.330Z,102395.84
2023-04-17T02:40:59.600Z,102394.88
2023-04-17T02:43:25.914Z,102388.66
2023-04-17T02:45:52.190Z,102398.66
2023-04-17T02:48:18.578Z,102399.22
2023-04-17T02:50:44.898Z,102396.56
2023-04-17T02:53:11.743Z,102402.25
2023-04-17T02:55:38.105Z,102399.66
2023-04-17T02:58:04.420Z,102397.78
2023-04-17T03:00:30.800Z,102398.97
2023-04-17T03:02:57.330Z,102405.38
2023-04-17T03:05:23.801Z,102408.88
2023-04-17T03:07:50.899Z,102407.09
2023-04-17T03:10:17.267Z,102401.47
2023-04-17T03:12:43.656Z,102401.13
2023-04-17T03:15:10.293Z,102413.50
2023-04-17T03:17:36.657Z,102413.59
2023-04-17T03:20:04.107Z,102414.72
2023-04-17T03:22:30.392Z,102418.25
2023-04-17T03:24:56.649Z,102421.41
2023-04-17T03:27:24.614Z,102420.03
2023-04-17T03:29:51.301Z,102420.44
2023-04-17T03:32:18.117Z,102427.50
2023-04-17T03:34:44.442Z,102424.16
2023-04-17T03:37:10.713Z,102429.53
2023-04-17T03:39:37.022Z,102426.53
2023-04-17T03:42:03.374Z,102425.28
2023-04-17T03:44:29.672Z,102419.78
2023-04-17T03:46:55.947Z,102427.97
2023-04-17T03:49:22.241Z,102428.31
2023-04-17T03:51:48.560Z,102429.56
2023-04-17T03:54:14.849Z,102434.69
2023-04-17T03:56:41.169Z,102428.69
2023-04-17T03:59:07.443Z,102427.66
2023-04-17T04:01:34.216Z,102429.09
2023-04-17T04:04:00.650Z,102433.06
2023-04-17T04:06:29.731Z,102437.28
2023-04-17T04:08:56.899Z,102439.25
2023-04-17T04:11:23.236Z,102440.75
2023-04-17T04:13:49.556Z,102442.13
2023-04-17T04:16:16.038Z,102445.28
2023-04-17T04:18:43.354Z,102457.81
2023-04-17T04:21:11.997Z,102452.66
2023-04-17T04:23:40.193Z,102455.38
2023-04-17T04:26:06.911Z,102455.81
2023-04-17T04:28:33.195Z,102458.16
2023-04-17T04:30:59.543Z,102456.81
2023-04-17T04:33:25.966Z,102456.69
2023-04-17T04:35:56.251Z,102468.06
2023-04-17T04:38:29.954Z,102461.09
2023-04-17T04:41:06.101Z,102460.25
2023-04-17T04:43:33.516Z,102463.44
2023-04-17T04:45:59.859Z,102466.81
2023-04-17T04:48:26.206Z,102469.91
2023-04-17T04:50:52.617Z,102472.75
2023-04-17T04:53:18.939Z,102474.94
2023-04-17T04:55:45.388Z,102468.84
2023-04-17T04:58:11.712Z,102474.03
2023-04-17T05:00:38.089Z,102483.59
2023-04-17T05:03:04.765Z,102476.25
2023-04-17T05:05:31.417Z,102480.75
2023-04-17T05:07:57.917Z,102481.91
2023-04-17T05:10:24.255Z,102486.25
2023-04-17T05:12:50.751Z,102490.53
2023-04-17T05:15:17.294Z,102487.19
2023-04-17T05:17:44.780Z,102489.19
2023-04-17T05:20:12.316Z,102493.34
2023-04-17T05:22:38.803Z,102496.16
2023-04-17T05:25:05.181Z,102498.97
2023-04-17T05:27:31.543Z,102500.41
2023-04-17T05:29:57.826Z,102499.50
2023-04-17T05:32:24.289Z,102510.22
2023-04-17T05:34:50.648Z,102500.16
2023-04-17T05:37:17.125Z,102506.34
2023-04-17T05:39:43.431Z,102504.53
2023-04-17T05:42:09.726Z,102515.78
2023-04-17T05:44:36.037Z,102504.94
2023-04-17T05:47:03.220Z,102513.66
2023-04-17T05:49:30.442Z,102517.56
2023-04-17T05:51:56.816Z,102515.56
2023-04-17T05:54:23.198Z,102510.66
2023-04-17T05:56:49.970Z,102513.19
2023-04-17T05:59:16.392Z,102509.78
2023-04-17T06:01:43.596Z,102516.94
2023-04-17T06:04:10.285Z,102511.84
2023-04-17T06:06:36.828Z,102512.19
2023-04-17T06:09:04.446Z,102519.84
2023-04-17T06:11:30.923Z,102521.03
2023-04-17T06:13:57.510Z,102518.00
2023-04-17T06:16:24.036Z,102530.31
2023-04-17T06:18:50.639Z,102524.31
2023-04-17T06:21:17.180Z,102533.94
2023-04-17T06:23:43.489Z,102534.13
2023-04-17T06:26:11.178Z,102527.63
2023-04-17T06:28:37.582Z,102531.72
2023-04-17T06:31:03.936Z,102531.13
2023-04-17T06:33:30.379Z,102538.97
2023-04-17T06:35:56.897Z,102542.84
2023-04-17T06:38:23.311Z,102543.94
2023-04-17T06:40:51.392Z,102545.75
2023-04-17T06:43:18.853Z,102544.47
2023-04-17T06:45:45.182Z,102549.16
2023-04-17T06:48:11.559Z,102549.72
2023-04-17T06:50:37.885Z,102555.34
2023-04-17T06:53:04.237Z,102551.97
2023-04-17T06:55:30.698Z,102557.91
2023-04-17T06:57:57.057Z,102554.31
2023-04-17T07:00:23.356Z,102554.19
2023-04-17T07:02:49.738Z,102566.47
2023-04-17T07:05:16.727Z,102570.16
2023-04-17T07:07:43.118Z,102573.88
2023-04-17T07:10:09.517Z,102576.63
2023-04-17T07:12:35.885Z,102570.66
2023-04-17T07:15:02.230Z,102572.44
2023-04-17T07:17:28.599Z,102574.44
2023-04-17T07:19:55.123Z,102578.72
2023-04-17T07:22:21.604Z,102579.13
2023-04-17T07:24:47.941Z,102583.13
2023-04-17T07:27:14.235Z,102582.81
2023-04-17T07:29:40.694Z,102580.66
2023-04-17T07:32:07.716Z,102586.16
2023-04-17T07:34:34.367Z,102591.28
2023-04-17T07:37:01.230Z,102583.19
2023-04-17T07:39:30.566Z,102592.34
2023-04-17T07:41:57.035Z,102595.00
2023-04-17T07:44:23.424Z,102597.09
2023-04-17T07:46:49.767Z,102591.97
2023-04-17T07:49:16.538Z,102596.50
2023-04-17T07:51:43.084Z,102598.78
2023-04-17T07:54:09.560Z,102596.78
2023-04-17T07:56:36.604Z,102601.47
2023-04-17T07:59:03.540Z,102599.56
2023-04-17T08:01:29.888Z,102609.25
2023-04-17T08:03:56.620Z,102601.28
2023-04-17T08:06:23.318Z,102605.69
2023-04-17T08:08:49.650Z,102604.78
2023-04-17T08:11:16.217Z,102600.72
2023-04-17T08:13:42.642Z,102589.84
2023-04-17T08:16:09.121Z,102605.44
2023-04-17T08:18:37.465Z,102607.19
2023-04-17T08:21:04.242Z,102601.91
2023-04-17T08:23:30.753Z,102612.47
2023-04-17T08:25:57.181Z,102604.41
2023-04-17T08:28:23.616Z,102602.53
2023-04-17T08:30:49.952Z,102612.41
2023-04-17T08:33:18.137Z,102608.63
2023-04-17T08:35:44.688Z,102615.31
2023-04-17T08:38:14.075Z,102615.75
2023-04-17T08:40:42.748Z,102619.72
2023-04-17T08:43:19.987Z,102616.72
2023-04-17T08:45:53.656Z,102610.88
2023-04-17T08:48:21.240Z,102617.50
2023-04-17T08:50:48.960Z,102609.06
2023-04-17T08:53:16.789Z,102614.41
2023-04-17T08:55:43.810Z,102610.34
2023-04-17T08:58:10.707Z,102622.34
2023-04-17T09:00:37.740Z,102610.00
2023-04-17T09:03:04.909Z,102611.16
2023-04-17T09:05:35.151Z,102615.00
2023-04-17T09:08:15.795Z,102616.81
2023-04-17T09:10:43.704Z,102612.03
2023-04-17T09:13:10.584Z,102614.81
2023-04-17T09:15:37.225Z,102611.22
2023-04-17T09:18:03.717Z,102609.28
2023-04-17T09:20:30.237Z,102617.91
2023-04-17T09:23:00.815Z,102610.16
2023-04-17T09:25:28.190Z,102615.63
2023-04-17T09:27:55.572Z,102619.22
2023-04-17T09:30:23.113Z,102606.88
2023-04-17T09:32:49.470Z,102609.16
2023-04-17T09:35:28.173Z,102612.28
2023-04-17T09:37:55.143Z,102609.16
2023-04-17T09:40:22.378Z,102611.91
2023-04-17T09:42:54.894Z,102605.06
2023-04-17T09:45:22.293Z,102605.31
2023-04-17T09:48:00.217Z,102602.75
2023-04-17T09:50:27.171Z,102602.09
2023-04-17T09:52:56.920Z,102603.69
2023-04-17T09:55:23.869Z,102603.16
2023-04-17T09:57:51.437Z,102596.50
2023-04-17T10:00:18.711Z,102610.88
2023-04-17T10:02:45.447Z,102615.53
2023-04-17T10:05:11.879Z,102607.94
2023-04-17T10:07:38.988Z,102608.28
2023-04-17T10:10:09.460Z,102605.31
2023-04-17T10:12:38.739Z,102599.63
2023-04-17T10:15:07.212Z,102599.88
2023-04-17T10:17:34.610Z,102619.72
2023-04-17T10:20:23.039Z,102616.41
2023-04-17T10:22:54.407Z,102603.41
2023-04-17T10:25:23.844Z,102611.94
2023-04-17T10:27:50.594Z,102610.13
2023-04-17T10:30:17.905Z,102583.72
2023-04-17T10:32:49.617Z,102587.72
2023-04-17T10:35:16.027Z,102593.94
2023-04-17T10:38:01.577Z,102591.31
2023-04-17T10:40:31.841Z,102589.81
2023-04-17T10:43:01.349Z,102588.28
2023-04-17T10:45:32.548Z,102580.13
2023-04-17T10:47:59.201Z,102580.34
2023-04-17T10:50:28.787Z,102575.56
2023-04-17T10:52:55.116Z,102582.50
2023-04-17T10:55:22.309Z,102576.69
2023-04-17T10:57:51.986Z,102583.69
2023-04-17T11:00:18.692Z,102574.66
2023-04-17T11:02:50.345Z,102572.78
2023-04-17T11:05:17.273Z,102571.34
2023-04-17T11:07:44.349Z,102562.66
2023-04-17T11:10:11.265Z,102560.75
2023-04-17T11:12:39.293Z,102566.66
2023-04-17T11:15:09.002Z,102572.72
2023-04-17T11:17:35.431Z,102579.72
2023-04-17T11:20:01.971Z,102564.53
2023-04-17T11:22:33.803Z,102576.91
2023-04-17T11:25:00.225Z,102564.38
2023-04-17T11:27:27.460Z,102559.94
2023-04-17T11:29:54.957Z,102573.22
2023-04-17T11:32:21.427Z,102564.88
2023-04-17T11:34:48.226Z,102558.66
2023-04-17T11:37:15.022Z,102553.50
2023-04-17T11:39:42.725Z,102560.63
2023-04-17T11:42:09.145Z,102550.97
2023-04-17T11:44:35.582Z,102566.94
2023-04-17T11:47:01.953Z,102570.91
2023-04-17T11:49:28.703Z,102565.31
2023-04-17T11:51:56.795Z,102563.19
2023-04-17T11:54:29.852Z,102559.41
2023-04-17T11:57:01.333Z,102566.50
2023-04-17T11:59:31.670Z,102555.19
2023-04-17T12:02:00.814Z,102554.44
2023-04-17T12:04:29.224Z,102563.63
2023-04-17T12:06:56.957Z,102551.91
2023-04-17T12:09:27.953Z,102558.03
2023-04-17T12:11:54.228Z,102576.81
2023-04-17T12:14:20.540Z,102570.56
2023-04-17T12:16:50.074Z,102575.47
2023-04-17T12:19:22.623Z,102565.56
2023-04-17T12:21:54.903Z,102566.66
2023-04-17T12:24:24.334Z,102581.25
2023-04-17T12:26:51.779Z,102568.63
2023-04-17T12:29:22.026Z,102555.50
2023-04-17T12:31:56.388Z,102551.16
2023-04-17T12:34:23.134Z,102557.75
2023-04-17T12:36:50.977Z,102564.06
2023-04-17T12:39:17.305Z,102565.63
2023-04-17T12:41:43.595Z,102558.25
2023-04-17T12:44:10.226Z,102565.34
2023-04-17T12:46:36.769Z,102563.66
2023-04-17T12:49:03.282Z,102550.84
2023-04-17T12:51:29.619Z,102566.84
2023-04-17T12:53:56.218Z,102564.41
2023-04-17T12:56:22.726Z,102562.38
2023-04-17T12:58:49.287Z,102561.41
2023-04-17T13:01:16.037Z,102560.75
2023-04-17T13:03:42.617Z,102551.41
2023-04-17T13:06:09.050Z,102547.28
2023-04-17T13:08:35.372Z,102557.16
2023-04-17T13:11:03.950Z,102558.38
2023-04-17T13:13:30.510Z,102545.16
2023-04-17T13:15:56.871Z,102556.00
2023-04-17T13:18:23.170Z,102555.44
2023-04-17T13:20:49.600Z,102548.41
2023-04-17T13:23:16.184Z,102545.63
2023-04-17T13:25:42.613Z,102565.53
2023-04-17T13:28:09.043Z,102561.84
2023-04-17T13:30:37.267Z,102555.72
2023-04-17T13:33:03.967Z,102547.16
2023-04-17T13:35:30.378Z,102558.66
2023-04-17T13:38:01.087Z,102553.03
2023-04-17T13:40:30.525Z,102538.63
2023-04-17T13:42:56.945Z,102533.59
2023-04-17T13:45:23.263Z,102537.25
2023-04-17T13:47:49.597Z,102537.13
2023-04-17T13:50:15.946Z,102526.16
2023-04-17T13:52:42.242Z,102525.31
2023-04-17T13:55:11.881Z,102526.28
2023-04-17T13:57:38.444Z,102524.28
2023-04-17T14:00:05.176Z,102514.63
2023-04-17T14:02:31.760Z,102521.00
2023-04-17T14:04:58.458Z,102515.63
2023-04-17T14:07:25.177Z,102510.34
2023-04-17T14:09:51.531Z,102526.81
2023-04-17T14:12:20.779Z,102518.91
2023-04-17T14:14:47.113Z,102512.31
2023-04-17T14:17:13.392Z,102508.44
2023-04-17T14:19:39.770Z,102507.06
2023-04-17T14:22:06.214Z,102502.75
2023-04-17T14:24:32.751Z,102506.72
2023-04-17T14:26:59.068Z,102511.28
2023-04-17T14:29:25.454Z,102500.94
2023-04-17T14:31:52.181Z,102509.50
2023-04-17T14:34:18.564Z,102510.59
2023-04-17T14:36:44.899Z,102499.78
2023-04-17T14:39:11.642Z,102511.28
2023-04-17T14:41:38.282Z,102499.81
2023-04-17T14:44:04.836Z,102496.53
2023-04-17T14:46:31.476Z,102496.94
2023-04-17T14:48:57.989Z,102505.50
2023-04-17T14:51:24.329Z,102507.50
2023-04-17T14:53:51.200Z,102497.19
2023-04-17T14:56:17.524Z,102497.84
2023-04-17T14:58:43.906Z,102502.41
2023-04-17T15:01:10.517Z,102500.66
2023-04-17T15:03:37.269Z,102504.03
2023-04-17T15:06:03.972Z,102504.69
2023-04-17T15:08:33.361Z,102498.47
2023-04-17T15:10:59.750Z,102518.00
2023-04-17T15:13:26.268Z,102509.91
2023-04-17T15:15:52.690Z,102511.50
2023-04-17T15:18:19.090Z,102506.97
2023-04-17T15:20:46.363Z,102508.41
2023-04-17T15:23:12.821Z,102519.47
2023-04-17T15:25:39.295Z,102524.28
2023-04-17T15:28:05.764Z,102506.53
2023-04-17T15:30:32.148Z,102525.53
2023-04-17T15:32:58.588Z,102497.06
2023-04-17T15:35:24.925Z,102520.09
2023-04-17T15:37:51.212Z,102507.25
2023-04-17T15:40:17.540Z,102518.47
2023-04-17T15:42:51.157Z,102523.16
2023-04-17T15:45:17.554Z,102533.78
2023-04-17T15:47:44.027Z,102521.53
2023-04-17T15:50:11.194Z,102513.00
2023-04-17T15:52:37.628Z,102525.72
2023-04-17T15:55:04.291Z,102519.91
2023-04-17T15:57:30.638Z,102524.28
2023-04-17T15:59:57.014Z,102542.66
2023-04-17T16:02:23.631Z,102529.06
2023-04-17T16:04:51.136Z,102539.34
2023-04-17T16:07:17.739Z,102533.50
2023-04-17T16:09:48.267Z,102542.69
2023-04-17T16:12:14.614Z,102543.53
2023-04-17T16:14:43.924Z,102557.25
2023-04-17T16:17:11.033Z,102546.34
2023-04-17T16:19:37.730Z,102547.59
2023-04-17T16:22:04.188Z,102546.03
2023-04-17T16:24:30.673Z,102567.25
2023-04-17T16:26:58.718Z,102556.28
2023-04-17T16:29:25.377Z,102556.19
2023-04-17T16:31:52.245Z,102551.66
2023-04-17T16:34:19.718Z,102571.97
2023-04-17T16:36:46.556Z,102555.94
2023-04-17T16:39:13.491Z,102567.88
2023-04-17T16:41:40.284Z,102570.16
2023-04-17T16:44:06.725Z,102569.09
2023-04-17T16:46:45.655Z,102568.22
2023-04-17T16:49:19.677Z,102566.69
2023-04-17T16:51:46.075Z,102565.25
2023-04-17T16:54:12.790Z,102572.78
2023-04-17T16:56:39.340Z,102569.06
2023-04-17T16:59:06.089Z,102570.09
2023-04-17T17:01:32.575Z,102581.63
2023-04-17T17:03:59.099Z,102577.31
2023-04-17T17:06:25.596Z,102566.78
2023-04-17T17:11:18.820Z,102588.22
2023-04-17T17:13:48.498Z,102579.28
2023-04-17T17:16:15.677Z,102590.31
2023-04-17T17:18:42.042Z,102595.94
2023-04-17T17:21:08.346Z,102585.97
2023-04-17T17:23:34.993Z,102596.13
2023-04-17T17:26:01.396Z,102594.03
2023-04-17T17:28:27.769Z,102593.31
2023-04-17T17:31:03.557Z,102618.47
2023-04-17T17:33:30.042Z,102611.00
2023-04-17T17:35:56.798Z,102600.69
2023-04-17T17:38:23.486Z,102615.06
2023-04-17T17:40:52.944Z,102608.50
2023-04-17T17:43:19.270Z,102615.69
2023-04-17T17:45:45.887Z,102625.16
2023-04-17T17:48:15.364Z,102617.38
2023-04-17T17:50:42.723Z,102621.50
2023-04-17T17:53:09.529Z,102629.06
2023-04-17T17:55:37.971Z,102628.25
2023-04-17T17:58:05.415Z,102625.31
2023-04-17T18:00:31.989Z,102627.47
2023-04-17T18:02:58.477Z,102625.38
2023-04-17T18:05:25.137Z,102630.56
2023-04-17T18:07:51.499Z,102627.94
2023-04-17T18:10:18.018Z,102635.22
2023-04-17T18:12:44.361Z,102633.41
2023-04-17T18:15:10.793Z,102629.97
2023-04-17T18:17:37.623Z,102627.16
2023-04-17T18:20:04.105Z,102640.00
2023-04-17T18:22:30.629Z,102643.88
2023-04-17T18:24:57.059Z,102636.47
2023-04-17T18:27:23.365Z,102644.75
2023-04-17T18:29:49.714Z,102646.94
2023-04-17T18:32:16.108Z,102640.41
2023-04-17T18:34:42.811Z,102639.56
2023-04-17T18:37:09.222Z,102640.38
2023-04-17T18:39:35.747Z,102656.38
2023-04-17T18:42:02.173Z,102658.75
2023-04-17T18:44:28.475Z,102645.09
2023-04-17T18:46:54.927Z,102657.97
2023-04-17T18:49:21.305Z,102648.66
2023-04-17T18:51:47.989Z,102663.50
2023-04-17T18:54:15.725Z,102672.25
2023-04-17T18:56:42.310Z,102664.09
2023-04-17T18:59:08.624Z,102668.16
2023-04-17T19:01:34.929Z,102666.19
2023-04-17T19:04:01.238Z,102656.38
2023-04-17T19:06:27.611Z,102674.91
2023-04-17T19:08:54.581Z,102665.72
2023-04-17T19:11:20.963Z,102678.84
2023-04-17T19:13:47.392Z,102669.28
2023-04-17T19:16:13.858Z,102679.59
2023-04-17T19:18:40.276Z,102672.13
2023-04-17T19:21:06.787Z,102675.53
2023-04-17T19:23:33.350Z,102672.34
2023-04-17T19:25:59.680Z,102678.88
2023-04-17T19:28:27.441Z,102669.38
2023-04-17T19:30:54.044Z,102680.78
2023-04-17T19:33:20.607Z,102681.00
2023-04-17T19:35:46.909Z,102671.66
2023-04-17T19:38:15.447Z,102675.56
2023-04-17T19:40:43.500Z,102674.53
2023-04-17T19:43:10.021Z,102685.81
2023-04-17T19:45:36.487Z,102680.53
2023-04-17T19:48:03.061Z,102679.44
2023-04-17T19:50:30.086Z,102683.50
2023-04-17T19:52:57.619Z,102685.56
2023-04-17T19:55:24.244Z,102687.66
2023-04-17T19:57:52.143Z,102684.97
2023-04-17T20:00:18.664Z,102680.19
2023-04-17T20:02:45.479Z,102691.25
2023-04-17T20:05:11.995Z,102690.78
2023-04-17T20:07:38.394Z,102683.31
2023-04-17T20:10:05.248Z,102674.53
2023-04-17T20:12:31.693Z,102679.81
2023-04-17T20:14:59.136Z,102691.97
2023-04-17T20:17:25.610Z,102683.50
2023-04-17T20:19:52.180Z,102684.53
2023-04-17T20:22:18.546Z,102688.69
2023-04-17T20:24:44.967Z,102695.09
2023-04-17T20:27:11.442Z,102683.59
2023-04-17T20:29:38.093Z,102692.78
2023-04-17T20:32:04.521Z,102688.41
2023-04-17T20:34:35.135Z,102690.53
2023-04-17T20:37:02.059Z,102698.38
2023-04-17T20:39:28.957Z,102695.81
2023-04-17T20:41:55.448Z,102691.41
2023-04-17T20:44:22.150Z,102702.66
2023-04-17T20:46:48.566Z,102695.03
2023-04-17T20:49:15.178Z,102693.47
2023-04-17T20:51:41.628Z,102703.25
2023-04-17T20:54:08.284Z,102702.50
2023-04-17T20:56:34.923Z,102706.13
2023-04-17T20:59:01.397Z,102692.59
2023-04-17T21:01:27.869Z,102702.94
2023-04-17T21:03:54.540Z,102704.78
2023-04-17T21:06:22.760Z,102708.88
2023-04-17T21:08:49.409Z,102699.34
2023-04-17T21:11:15.921Z,102707.31
2023-04-17T21:13:42.390Z,102713.41
2023-04-17T21:16:12.115Z,102704.31
2023-04-17T21:18:38.729Z,102704.31
2023-04-17T21:21:05.500Z,102701.09
2023-04-17T21:23:31.956Z,102694.94
2023-04-17T21:25:58.560Z,102701.78
2023-04-17T21:28:25.022Z,102702.63
2023-04-17T21:30:51.480Z,102707.28
2023-04-17T21:33:18.172Z,102694.22
2023-04-17T21:35:44.712Z,102701.66
2023-04-17T21:38:12.533Z,102709.38
2023-04-17T21:40:50.633Z,102705.78
2023-04-17T21:43:18.329Z,102704.97
2023-04-17T21:45:45.009Z,102707.09
2023-04-17T21:48:11.449Z,102698.75
2023-04-17T21:50:37.888Z,102715.47
2023-04-17T21:53:04.270Z,102701.88
2023-04-17T21:55:30.732Z,102709.81
2023-04-17T21:57:57.116Z,102713.94
2023-04-17T22:00:23.682Z,102724.81
2023-04-17T22:02:50.123Z,102715.00
2023-04-17T22:05:16.736Z,102710.88
2023-04-17T22:07:51.784Z,102715.75
2023-04-17T22:10:20.581Z,102706.44
2023-04-17T22:12:46.966Z,102716.84
2023-04-17T22:15:13.374Z,102720.81
2023-04-17T22:17:39.822Z,102721.34
2023-04-17T22:20:07.107Z,102724.09
2023-04-17T22:22:33.490Z,102718.09
2023-04-17T22:24:59.877Z,102718.69
2023-04-17T22:27:26.269Z,102724.97
2023-04-17T22:29:52.644Z,102717.69
2023-04-17T22:32:19.054Z,102724.16
2023-04-17T22:34:49.149Z,102714.91
2023-04-17T22:37:15.615Z,102724.34
2023-04-17T22:39:42.175Z,102718.78
2023-04-17T22:42:08.691Z,102714.69
2023-04-17T22:44:35.597Z,102718.09
2023-04-17T22:47:01.978Z,102729.19
2023-04-17T22:49:28.400Z,102723.00
2023-04-17T22:51:54.895Z,102731.84
2023-04-17T22:54:23.127Z,102719.69
2023-04-17T22:56:49.880Z,102726.25
2023-04-17T22:59:16.314Z,102720.84
2023-04-17T23:01:42.810Z,102726.13
2023-04-17T23:04:10.584Z,102725.00
2023-04-17T23:06:37.065Z,102727.81
2023-04-17T23:09:04.743Z,102730.50
2023-04-17T23:11:31.864Z,102739.09
2023-04-17T23:13:58.379Z,102745.91
2023-04-17T23:16:25.091Z,102734.75
2023-04-17T23:18:51.715Z,102742.53
2023-04-17T23:21:18.108Z,102749.47
2023-04-17T23:23:45.238Z,102742.13
2023-04-17T23:26:15.020Z,102749.91
2023-04-17T23:28:41.649Z,102748.16
2023-04-17T23:31:08.180Z,102750.94
2023-04-17T23:33:34.653Z,102745.22
2023-04-17T23:36:01.128Z,102747.03
2023-04-17T23:38:27.570Z,102748.84
2023-04-17T23:40:54.089Z,102755.56
2023-04-17T23:43:20.599Z,102756.47
2023-04-17T23:45:47.035Z,102748.09
2023-04-17T23:48:13.459Z,102756.66
2023-04-17T23:50:40.818Z,102752.34
2023-04-17T23:53:07.544Z,102748.53
2023-04-17T23:55:34.272Z,102750.00
2023-04-17T23:58:00.676Z,102758.69
